Alta Vista, Iowa
Current Conditions -  °F | °C
As of 5:55 PM on Saturday 20 Dec 2014 (Local Time) from KCCY Reporting Station
Overcast Overcast  
Wind Chill: -5°   Ceiling: 1700
Heat Index: NA   Visibility: 8mi
Dew Point:   Wind: 8mph
Humidity: NA   Direction: 140°SE
Pressure: 30.14"   Gusts: NA
Location:  43.2°N, 92.42°W
Report Text: KCCY 202355Z AUTO 14007KT 8SM OVC017 M01/M00 A3014 RMK AO2
Loading
Personal Weather Stations






























Interactive Weather Map New forecast layout! Learn more

10-Day Weather Forecast

Advertisements
Track Severe Weather on mobile